sensor_id;sensor_type;location;lat;lon;timestamp;temperature;humidity
11379;DHT22;5744;59.392;16.748;2023-05-13T00:01:14;9.90;99.90
11379;DHT22;5744;59.392;16.748;2023-05-13T00:03:43;9.80;99.90
11379;DHT22;5744;59.392;16.748;2023-05-13T00:06:12;9.80;99.90
11379;DHT22;5744;59.392;16.748;2023-05-13T00:08:43;9.70;99.90
11379;DHT22;5744;59.392;16.748;2023-05-13T00:11:11;9.70;99.90
11379;DHT22;5744;59.392;16.748;2023-05-13T00:13:40;9.60;99.90
11379;DHT22;5744;59.392;16.748;2023-05-13T00:16:09;9.50;99.90
11379;DHT22;5744;59.392;16.748;2023-05-13T00:18:37;9.50;99.90
11379;DHT22;5744;59.392;16.748;2023-05-13T00:21:06;9.50;99.90
11379;DHT22;5744;59.392;16.748;2023-05-13T00:23:34;9.40;99.90
11379;DHT22;5744;59.392;16.748;2023-05-13T00:26:06;9.30;99.90
11379;DHT22;5744;59.392;16.748;2023-05-13T00:28:34;9.30;99.90
11379;DHT22;5744;59.392;16.748;2023-05-13T00:31:03;9.20;99.90
11379;DHT22;5744;59.392;16.748;2023-05-13T00:33:31;9.10;99.90
11379;DHT22;5744;59.392;16.748;2023-05-13T00:36:00;9.00;99.90
11379;DHT22;5744;59.392;16.748;2023-05-13T00:38:28;9.00;99.90
11379;DHT22;5744;59.392;16.748;2023-05-13T00:40:57;8.80;99.90
11379;DHT22;5744;59.392;16.748;2023-05-13T00:43:28;8.70;99.90
11379;DHT22;5744;59.392;16.748;2023-05-13T00:45:57;8.70;99.90
11379;DHT22;5744;59.392;16.748;2023-05-13T00:48:25;8.70;99.90
11379;DHT22;5744;59.392;16.748;2023-05-13T00:50:54;8.60;99.90
11379;DHT22;5744;59.392;16.748;2023-05-13T00:53:23;8.50;99.90
11379;DHT22;5744;59.392;16.748;2023-05-13T00:55:51;8.50;99.90
11379;DHT22;5744;59.392;16.748;2023-05-13T00:58:20;8.50;99.90
11379;DHT22;5744;59.392;16.748;2023-05-13T01:00:53;8.60;99.90
11379;DHT22;5744;59.392;16.748;2023-05-13T01:03:26;8.60;99.90
11379;DHT22;5744;59.392;16.748;2023-05-13T01:05:58;8.70;99.90
11379;DHT22;5744;59.392;16.748;2023-05-13T01:08:31;8.70;99.90
11379;DHT22;5744;59.392;16.748;2023-05-13T01:11:03;8.70;99.90
11379;DHT22;5744;59.392;16.748;2023-05-13T01:13:35;8.70;99.90
11379;DHT22;5744;59.392;16.748;2023-05-13T01:16:12;8.70;99.90
11379;DHT22;5744;59.392;16.748;2023-05-13T01:18:43;8.70;99.90
11379;DHT22;5744;59.392;16.748;2023-05-13T01:21:12;8.60;99.90
11379;DHT22;5744;59.392;16.748;2023-05-13T01:23:43;8.60;99.90
11379;DHT22;5744;59.392;16.748;2023-05-13T01:26:11;8.60;99.90
11379;DHT22;5744;59.392;16.748;2023-05-13T01:28:40;8.50;99.90
11379;DHT22;5744;59.392;16.748;2023-05-13T01:31:08;8.50;99.90
11379;DHT22;5744;59.392;16.748;2023-05-13T01:33:37;8.40;99.90
11379;DHT22;5744;59.392;16.748;2023-05-13T01:36:07;8.30;99.90
11379;DHT22;5744;59.392;16.748;2023-05-13T01:38:38;8.30;99.90
11379;DHT22;5744;59.392;16.748;2023-05-13T01:41:10;8.30;99.90
11379;DHT22;5744;59.392;16.748;2023-05-13T01:43:38;8.30;99.90
11379;DHT22;5744;59.392;16.748;2023-05-13T01:46:10;8.30;99.90
11379;DHT22;5744;59.392;16.748;2023-05-13T01:48:38;8.20;99.90
11379;DHT22;5744;59.392;16.748;2023-05-13T01:51:07;8.20;99.90
11379;DHT22;5744;59.392;16.748;2023-05-13T01:53:36;8.20;99.90
11379;DHT22;5744;59.392;16.748;2023-05-13T01:56:07;8.10;99.90
11379;DHT22;5744;59.392;16.748;2023-05-13T01:58:38;8.10;99.90
11379;DHT22;5744;59.392;16.748;2023-05-13T02:01:07;8.00;99.90
11379;DHT22;5744;59.392;16.748;2023-05-13T02:03:35;8.00;99.90
11379;DHT22;5744;59.392;16.748;2023-05-13T02:06:04;8.00;99.90
11379;DHT22;5744;59.392;16.748;2023-05-13T02:08:33;7.90;99.90
11379;DHT22;5744;59.392;16.748;2023-05-13T02:11:01;7.90;99.90
11379;DHT22;5744;59.392;16.748;2023-05-13T02:13:30;7.90;99.90
11379;DHT22;5744;59.392;16.748;2023-05-13T02:16:01;7.80;99.90
11379;DHT22;5744;59.392;16.748;2023-05-13T02:18:30;7.80;99.90
11379;DHT22;5744;59.392;16.748;2023-05-13T02:20:58;7.70;99.90
11379;DHT22;5744;59.392;16.748;2023-05-13T02:23:27;7.70;99.90
11379;DHT22;5744;59.392;16.748;2023-05-13T02:25:55;7.60;99.90
11379;DHT22;5744;59.392;16.748;2023-05-13T02:28:24;7.60;99.90
11379;DHT22;5744;59.392;16.748;2023-05-13T02:30:52;7.50;99.90
11379;DHT22;5744;59.392;16.748;2023-05-13T02:33:24;7.50;99.90
11379;DHT22;5744;59.392;16.748;2023-05-13T02:35:52;7.50;99.90
11379;DHT22;5744;59.392;16.748;2023-05-13T02:38:21;7.50;99.90
11379;DHT22;5744;59.392;16.748;2023-05-13T02:40:49;7.50;99.90
11379;DHT22;5744;59.392;16.748;2023-05-13T02:43:18;7.50;99.90
11379;DHT22;5744;59.392;16.748;2023-05-13T02:45:48;7.50;99.90
11379;DHT22;5744;59.392;16.748;2023-05-13T02:48:16;7.50;99.90
11379;DHT22;5744;59.392;16.748;2023-05-13T02:50:47;7.40;99.90
11379;DHT22;5744;59.392;16.748;2023-05-13T02:53:16;7.40;99.90
11379;DHT22;5744;59.392;16.748;2023-05-13T02:55:44;7.40;99.90
11379;DHT22;5744;59.392;16.748;2023-05-13T02:58:13;7.40;99.90
11379;DHT22;5744;59.392;16.748;2023-05-13T03:00:41;7.30;99.90
11379;DHT22;5744;59.392;16.748;2023-05-13T03:03:10;7.30;99.90
11379;DHT22;5744;59.392;16.748;2023-05-13T03:05:38;7.40;99.90
11379;DHT22;5744;59.392;16.748;2023-05-13T03:08:09;7.40;99.90
11379;DHT22;5744;59.392;16.748;2023-05-13T03:10:38;7.50;99.90
11379;DHT22;5744;59.392;16.748;2023-05-13T03:13:07;7.50;99.90
11379;DHT22;5744;59.392;16.748;2023-05-13T03:15:35;7.50;99.90
11379;DHT22;5744;59.392;16.748;2023-05-13T03:18:04;7.50;99.90
11379;DHT22;5744;59.392;16.748;2023-05-13T03:20:33;7.50;99.90
11379;DHT22;5744;59.392;16.748;2023-05-13T03:23:01;7.60;99.90
11379;DHT22;5744;59.392;16.748;2023-05-13T03:25:32;7.60;99.90
11379;DHT22;5744;59.392;16.748;2023-05-13T03:28:01;7.60;99.90
11379;DHT22;5744;59.392;16.748;2023-05-13T03:30:30;7.60;99.90
11379;DHT22;5744;59.392;16.748;2023-05-13T03:32:59;7.60;99.90
11379;DHT22;5744;59.392;16.748;2023-05-13T03:35:27;7.70;99.90
11379;DHT22;5744;59.392;16.748;2023-05-13T03:37:56;7.70;99.90
11379;DHT22;5744;59.392;16.748;2023-05-13T03:40:24;7.80;99.90
11379;DHT22;5744;59.392;16.748;2023-05-13T03:42:56;7.80;99.90
11379;DHT22;5744;59.392;16.748;2023-05-13T03:45:24;7.90;99.90
11379;DHT22;5744;59.392;16.748;2023-05-13T03:47:53;7.90;99.90
11379;DHT22;5744;59.392;16.748;2023-05-13T03:50:22;7.90;99.90
11379;DHT22;5744;59.392;16.748;2023-05-13T03:52:51;7.90;99.90
11379;DHT22;5744;59.392;16.748;2023-05-13T03:55:20;8.00;99.90
11379;DHT22;5744;59.392;16.748;2023-05-13T03:57:49;8.00;99.90
11379;DHT22;5744;59.392;16.748;2023-05-13T04:00:20;8.10;99.90
11379;DHT22;5744;59.392;16.748;2023-05-13T04:02:48;8.10;99.90
11379;DHT22;5744;59.392;16.748;2023-05-13T04:05:17;8.20;99.90
11379;DHT22;5744;59.392;16.748;2023-05-13T04:07:46;8.30;99.90
11379;DHT22;5744;59.392;16.748;2023-05-13T04:10:15;8.30;99.90
11379;DHT22;5744;59.392;16.748;2023-05-13T04:12:43;8.50;99.90
11379;DHT22;5744;59.392;16.748;2023-05-13T04:15:12;8.60;99.90
11379;DHT22;5744;59.392;16.748;2023-05-13T04:17:43;8.70;99.90
11379;DHT22;5744;59.392;16.748;2023-05-13T04:20:12;8.80;99.90
11379;DHT22;5744;59.392;16.748;2023-05-13T04:22:40;8.90;99.90
11379;DHT22;5744;59.392;16.748;2023-05-13T04:25:09;9.00;99.90
11379;DHT22;5744;59.392;16.748;2023-05-13T04:27:38;9.20;99.90
11379;DHT22;5744;59.392;16.748;2023-05-13T04:30:07;9.20;99.90
11379;DHT22;5744;59.392;16.748;2023-05-13T04:32:35;9.30;99.90
11379;DHT22;5744;59.392;16.748;2023-05-13T04:35:07;9.50;99.90
11379;DHT22;5744;59.392;16.748;2023-05-13T04:37:36;9.50;99.90
11379;DHT22;5744;59.392;16.748;2023-05-13T04:40:05;9.60;99.90
11379;DHT22;5744;59.392;16.748;2023-05-13T04:42:34;9.80;99.90
11379;DHT22;5744;59.392;16.748;2023-05-13T04:45:03;9.90;99.90
11379;DHT22;5744;59.392;16.748;2023-05-13T04:47:31;10.10;99.90
11379;DHT22;5744;59.392;16.748;2023-05-13T04:50:00;10.20;99.90
11379;DHT22;5744;59.392;16.748;2023-05-13T04:52:31;10.40;99.90
11379;DHT22;5744;59.392;16.748;2023-05-13T04:55:02;10.50;99.90
11379;DHT22;5744;59.392;16.748;2023-05-13T04:57:30;10.70;99.90
11379;DHT22;5744;59.392;16.748;2023-05-13T04:59:59;10.90;99.90
11379;DHT22;5744;59.392;16.748;2023-05-13T05:02:28;11.00;99.90
11379;DHT22;5744;59.392;16.748;2023-05-13T05:04:57;11.10;99.90
11379;DHT22;5744;59.392;16.748;2023-05-13T05:07:25;11.30;99.90
11379;DHT22;5744;59.392;16.748;2023-05-13T05:09:56;11.50;99.90
11379;DHT22;5744;59.392;16.748;2023-05-13T05:12:25;11.70;99.90
11379;DHT22;5744;59.392;16.748;2023-05-13T05:14:55;11.80;99.90
11379;DHT22;5744;59.392;16.748;2023-05-13T05:17:24;11.90;99.90
11379;DHT22;5744;59.392;16.748;2023-05-13T05:19:56;12.10;99.90
11379;DHT22;5744;59.392;16.748;2023-05-13T05:22:25;12.20;99.90
11379;DHT22;5744;59.392;16.748;2023-05-13T05:24:54;12.40;99.90
11379;DHT22;5744;59.392;16.748;2023-05-13T05:27:25;12.60;99.90
11379;DHT22;5744;59.392;16.748;2023-05-13T05:29:53;12.80;99.90
11379;DHT22;5744;59.392;16.748;2023-05-13T05:32:22;13.00;99.90
11379;DHT22;5744;59.392;16.748;2023-05-13T05:34:50;13.10;99.90
11379;DHT22;5744;59.392;16.748;2023-05-13T05:37:19;13.30;99.90
11379;DHT22;5744;59.392;16.748;2023-05-13T05:39:47;13.40;99.90
11379;DHT22;5744;59.392;16.748;2023-05-13T05:42:16;13.70;99.90
11379;DHT22;5744;59.392;16.748;2023-05-13T05:44:47;13.80;99.90
11379;DHT22;5744;59.392;16.748;2023-05-13T05:47:16;14.10;99.90
11379;DHT22;5744;59.392;16.748;2023-05-13T05:49:44;14.30;99.90
11379;DHT22;5744;59.392;16.748;2023-05-13T05:52:13;14.50;99.90
11379;DHT22;5744;59.392;16.748;2023-05-13T05:54:41;14.70;99.90
11379;DHT22;5744;59.392;16.748;2023-05-13T05:57:10;14.80;99.90
11379;DHT22;5744;59.392;16.748;2023-05-13T05:59:38;15.00;99.90
11379;DHT22;5744;59.392;16.748;2023-05-13T06:02:09;15.20;99.90
11379;DHT22;5744;59.392;16.748;2023-05-13T06:04:38;15.40;99.90
11379;DHT22;5744;59.392;16.748;2023-05-13T06:07:07;15.60;99.90
11379;DHT22;5744;59.392;16.748;2023-05-13T06:09:35;15.70;99.90
11379;DHT22;5744;59.392;16.748;2023-05-13T06:12:04;15.90;99.90
11379;DHT22;5744;59.392;16.748;2023-05-13T06:14:33;15.90;99.90
11379;DHT22;5744;59.392;16.748;2023-05-13T06:17:01;15.90;99.90
11379;DHT22;5744;59.392;16.748;2023-05-13T06:19:32;16.00;99.90
11379;DHT22;5744;59.392;16.748;2023-05-13T06:22:01;16.30;99.90
11379;DHT22;5744;59.392;16.748;2023-05-13T06:24:29;16.40;99.90
11379;DHT22;5744;59.392;16.748;2023-05-13T06:26:58;16.70;99.90
11379;DHT22;5744;59.392;16.748;2023-05-13T06:29:27;16.80;99.90
11379;DHT22;5744;59.392;16.748;2023-05-13T06:31:55;17.10;99.90
11379;DHT22;5744;59.392;16.748;2023-05-13T06:34:24;17.40;99.90
11379;DHT22;5744;59.392;16.748;2023-05-13T06:36:55;17.60;99.90
11379;DHT22;5744;59.392;16.748;2023-05-13T06:39:24;17.70;99.90
11379;DHT22;5744;59.392;16.748;2023-05-13T06:41:52;17.90;99.90
11379;DHT22;5744;59.392;16.748;2023-05-13T06:44:21;18.20;99.90
11379;DHT22;5744;59.392;16.748;2023-05-13T06:46:49;18.70;99.90
11379;DHT22;5744;59.392;16.748;2023-05-13T06:49:18;18.90;99.90
11379;DHT22;5744;59.392;16.748;2023-05-13T06:51:46;19.20;99.90
11379;DHT22;5744;59.392;16.748;2023-05-13T06:54:17;19.60;99.90
11379;DHT22;5744;59.392;16.748;2023-05-13T06:56:46;19.60;99.90
11379;DHT22;5744;59.392;16.748;2023-05-13T06:59:14;19.70;99.90
11379;DHT22;5744;59.392;16.748;2023-05-13T07:01:44;19.70;99.90
11379;DHT22;5744;59.392;16.748;2023-05-13T07:04:13;19.90;99.90
11379;DHT22;5744;59.392;16.748;2023-05-13T07:06:41;20.70;99.90
11379;DHT22;5744;59.392;16.748;2023-05-13T07:09:10;21.50;99.90
11379;DHT22;5744;59.392;16.748;2023-05-13T07:11:41;22.20;99.90
11379;DHT22;5744;59.392;16.748;2023-05-13T07:14:10;23.10;99.90
11379;DHT22;5744;59.392;16.748;2023-05-13T07:16:38;22.80;99.90
11379;DHT22;5744;59.392;16.748;2023-05-13T07:19:07;22.90;99.90
11379;DHT22;5744;59.392;16.748;2023-05-13T07:21:36;23.10;99.90
11379;DHT22;5744;59.392;16.748;2023-05-13T07:24:05;23.00;99.90
11379;DHT22;5744;59.392;16.748;2023-05-13T07:26:33;23.70;99.40
11379;DHT22;5744;59.392;16.748;2023-05-13T07:29:05;23.90;99.90
11379;DHT22;5744;59.392;16.748;2023-05-13T07:31:34;24.10;99.50
11379;DHT22;5744;59.392;16.748;2023-05-13T07:34:03;24.60;98.50
11379;DHT22;5744;59.392;16.748;2023-05-13T07:36:31;24.80;98.40
11379;DHT22;5744;59.392;16.748;2023-05-13T07:39:00;24.10;97.50
11379;DHT22;5744;59.392;16.748;2023-05-13T07:41:29;23.50;97.60
11379;DHT22;5744;59.392;16.748;2023-05-13T07:43:57;23.50;99.20
11379;DHT22;5744;59.392;16.748;2023-05-13T07:46:29;23.60;98.10
11379;DHT22;5744;59.392;16.748;2023-05-13T07:48:57;23.70;98.00
11379;DHT22;5744;59.392;16.748;2023-05-13T07:51:27;23.70;96.70
11379;DHT22;5744;59.392;16.748;2023-05-13T07:53:56;24.00;99.30
11379;DHT22;5744;59.392;16.748;2023-05-13T07:56:25;24.60;98.00
11379;DHT22;5744;59.392;16.748;2023-05-13T07:58:54;25.10;98.30
11379;DHT22;5744;59.392;16.748;2023-05-13T08:01:22;25.50;96.90
11379;DHT22;5744;59.392;16.748;2023-05-13T08:03:54;26.00;95.60
11379;DHT22;5744;59.392;16.748;2023-05-13T08:06:22;26.60;95.70
11379;DHT22;5744;59.392;16.748;2023-05-13T08:08:51;26.80;93.80
11379;DHT22;5744;59.392;16.748;2023-05-13T08:11:19;26.50;93.80
11379;DHT22;5744;59.392;16.748;2023-05-13T08:13:48;26.20;93.50
11379;DHT22;5744;59.392;16.748;2023-05-13T08:16:17;26.70;93.80
11379;DHT22;5744;59.392;16.748;2023-05-13T08:18:46;26.90;92.00
11379;DHT22;5744;59.392;16.748;2023-05-13T08:21:17;27.30;93.10
11379;DHT22;5744;59.392;16.748;2023-05-13T08:23:45;27.10;92.30
11379;DHT22;5744;59.392;16.748;2023-05-13T08:26:14;26.70;93.00
11379;DHT22;5744;59.392;16.748;2023-05-13T08:28:42;27.10;93.60
11379;DHT22;5744;59.392;16.748;2023-05-13T08:31:11;27.70;91.90
11379;DHT22;5744;59.392;16.748;2023-05-13T08:33:40;28.10;91.20
11379;DHT22;5744;59.392;16.748;2023-05-13T08:36:10;28.40;91.70
11379;DHT22;5744;59.392;16.748;2023-05-13T08:38:41;28.70;90.60
11379;DHT22;5744;59.392;16.748;2023-05-13T08:41:10;28.60;90.40
11379;DHT22;5744;59.392;16.748;2023-05-13T08:43:40;28.70;90.10
11379;DHT22;5744;59.392;16.748;2023-05-13T08:46:10;28.40;88.60
11379;DHT22;5744;59.392;16.748;2023-05-13T08:48:41;27.70;85.90
11379;DHT22;5744;59.392;16.748;2023-05-13T08:51:09;26.90;90.10
11379;DHT22;5744;59.392;16.748;2023-05-13T08:53:38;26.20;90.40
11379;DHT22;5744;59.392;16.748;2023-05-13T08:56:09;26.60;88.60
11379;DHT22;5744;59.392;16.748;2023-05-13T08:58:38;26.60;87.50
11379;DHT22;5744;59.392;16.748;2023-05-13T09:01:06;26.90;87.20
11379;DHT22;5744;59.392;16.748;2023-05-13T09:03:35;26.80;89.50
11379;DHT22;5744;59.392;16.748;2023-05-13T09:06:08;27.80;90.90
11379;DHT22;5744;59.392;16.748;2023-05-13T09:08:37;28.20;90.70
11379;DHT22;5744;59.392;16.748;2023-05-13T09:11:06;29.00;89.50
11379;DHT22;5744;59.392;16.748;2023-05-13T09:13:37;29.00;85.00
11379;DHT22;5744;59.392;16.748;2023-05-13T09:16:05;28.60;83.80
11379;DHT22;5744;59.392;16.748;2023-05-13T09:18:34;28.80;82.80
11379;DHT22;5744;59.392;16.748;2023-05-13T09:23:52;27.90;81.00
11379;DHT22;5744;59.392;16.748;2023-05-13T09:26:26;28.40;83.30
11379;DHT22;5744;59.392;16.748;2023-05-13T09:31:41;28.20;81.00
11379;DHT22;5744;59.392;16.748;2023-05-13T09:34:09;27.80;82.30
11379;DHT22;5744;59.392;16.748;2023-05-13T09:36:38;28.30;84.50
11379;DHT22;5744;59.392;16.748;2023-05-13T09:39:07;28.50;81.40
11379;DHT22;5744;59.392;16.748;2023-05-13T09:41:36;29.20;80.30
11379;DHT22;5744;59.392;16.748;2023-05-13T09:44:04;29.90;83.00
11379;DHT22;5744;59.392;16.748;2023-05-13T09:46:33;30.30;81.10
11379;DHT22;5744;59.392;16.748;2023-05-13T09:49:04;30.10;78.50
11379;DHT22;5744;59.392;16.748;2023-05-13T09:51:33;29.50;77.80
11379;DHT22;5744;59.392;16.748;2023-05-13T09:54:02;29.10;75.70
11379;DHT22;5744;59.392;16.748;2023-05-13T09:56:31;29.20;76.40
11379;DHT22;5744;59.392;16.748;2023-05-13T09:59:00;29.50;74.70
11379;DHT22;5744;59.392;16.748;2023-05-13T10:01:29;29.20;75.90
11379;DHT22;5744;59.392;16.748;2023-05-13T10:03:58;28.80;78.40
11379;DHT22;5744;59.392;16.748;2023-05-13T10:06:30;28.30;77.30
11379;DHT22;5744;59.392;16.748;2023-05-13T10:08:59;28.70;79.80
11379;DHT22;5744;59.392;16.748;2023-05-13T10:11:28;29.40;77.10
11379;DHT22;5744;59.392;16.748;2023-05-13T10:13:58;29.90;79.30
11379;DHT22;5744;59.392;16.748;2023-05-13T10:16:27;29.40;76.10
11379;DHT22;5744;59.392;16.748;2023-05-13T10:18:56;28.80;79.00
11379;DHT22;5744;59.392;16.748;2023-05-13T10:21:26;28.90;76.80
11379;DHT22;5744;59.392;16.748;2023-05-13T10:23:58;29.00;75.20
11379;DHT22;5744;59.392;16.748;2023-05-13T10:26:27;28.70;74.10
11379;DHT22;5744;59.392;16.748;2023-05-13T10:28:56;28.50;76.10
11379;DHT22;5744;59.392;16.748;2023-05-13T10:31:25;29.00;73.30
11379;DHT22;5744;59.392;16.748;2023-05-13T10:33:54;29.70;80.50
11379;DHT22;5744;59.392;16.748;2023-05-13T10:36:33;29.70;78.40
11379;DHT22;5744;59.392;16.748;2023-05-13T10:39:16;30.00;75.80
11379;DHT22;5744;59.392;16.748;2023-05-13T10:42:07;29.10;73.60
11379;DHT22;5744;59.392;16.748;2023-05-13T10:44:43;29.10;74.10
11379;DHT22;5744;59.392;16.748;2023-05-13T10:47:12;29.90;75.40
11379;DHT22;5744;59.392;16.748;2023-05-13T10:49:41;29.90;70.00
11379;DHT22;5744;59.392;16.748;2023-05-13T10:52:17;30.20;69.60
11379;DHT22;5744;59.392;16.748;2023-05-13T10:54:59;30.50;69.30
11379;DHT22;5744;59.392;16.748;2023-05-13T10:57:29;31.10;72.70
11379;DHT22;5744;59.392;16.748;2023-05-13T11:00:09;32.00;71.30
11379;DHT22;5744;59.392;16.748;2023-05-13T11:02:39;32.60;70.40
11379;DHT22;5744;59.392;16.748;2023-05-13T11:05:07;32.80;65.40
11379;DHT22;5744;59.392;16.748;2023-05-13T11:07:36;32.40;68.10
11379;DHT22;5744;59.392;16.748;2023-05-13T11:10:19;32.40;69.00
11379;DHT22;5744;59.392;16.748;2023-05-13T11:15:44;32.30;69.90
11379;DHT22;5744;59.392;16.748;2023-05-13T11:18:13;31.40;68.40
11379;DHT22;5744;59.392;16.748;2023-05-13T11:20:44;31.40;72.50
11379;DHT22;5744;59.392;16.748;2023-05-13T11:23:16;31.60;65.50
11379;DHT22;5744;59.392;16.748;2023-05-13T11:25:47;31.40;71.30
11379;DHT22;5744;59.392;16.748;2023-05-13T11:31:19;31.70;67.20
11379;DHT22;5744;59.392;16.748;2023-05-13T11:36:40;31.70;65.80
11379;DHT22;5744;59.392;16.748;2023-05-13T11:39:10;31.90;67.50
11379;DHT22;5744;59.392;16.748;2023-05-13T11:41:42;31.90;65.10
11379;DHT22;5744;59.392;16.748;2023-05-13T11:44:12;32.00;68.80
11379;DHT22;5744;59.392;16.748;2023-05-13T11:46:53;32.20;67.60
11379;DHT22;5744;59.392;16.748;2023-05-13T11:49:31;32.50;70.10
11379;DHT22;5744;59.392;16.748;2023-05-13T11:52:01;32.70;65.90
11379;DHT22;5744;59.392;16.748;2023-05-13T11:54:29;32.70;62.60
11379;DHT22;5744;59.392;16.748;2023-05-13T11:57:01;32.00;68.20
11379;DHT22;5744;59.392;16.748;2023-05-13T11:59:29;31.60;64.50
11379;DHT22;5744;59.392;16.748;2023-05-13T12:01:58;31.50;66.40
11379;DHT22;5744;59.392;16.748;2023-05-13T12:04:27;31.60;70.50
11379;DHT22;5744;59.392;16.748;2023-05-13T12:06:56;31.10;68.20
11379;DHT22;5744;59.392;16.748;2023-05-13T12:09:25;30.70;68.50
11379;DHT22;5744;59.392;16.748;2023-05-13T12:11:53;30.40;69.60
11379;DHT22;5744;59.392;16.748;2023-05-13T12:14:25;30.50;71.30
11379;DHT22;5744;59.392;16.748;2023-05-13T12:16:54;30.50;67.70
11379;DHT22;5744;59.392;16.748;2023-05-13T12:19:23;30.60;66.20
11379;DHT22;5744;59.392;16.748;2023-05-13T12:21:51;30.60;67.00
11379;DHT22;5744;59.392;16.748;2023-05-13T12:24:20;30.30;68.10
11379;DHT22;5744;59.392;16.748;2023-05-13T12:26:50;30.40;67.20
11379;DHT22;5744;59.392;16.748;2023-05-13T12:29:19;30.20;66.30
11379;DHT22;5744;59.392;16.748;2023-05-13T12:34:34;30.20;65.40
11379;DHT22;5744;59.392;16.748;2023-05-13T12:37:09;29.90;68.90
11379;DHT22;5744;59.392;16.748;2023-05-13T12:39:39;30.50;69.20
11379;DHT22;5744;59.392;16.748;2023-05-13T12:42:13;30.70;64.70
11379;DHT22;5744;59.392;16.748;2023-05-13T12:44:43;30.60;63.70
11379;DHT22;5744;59.392;16.748;2023-05-13T12:47:12;29.90;69.00
11379;DHT22;5744;59.392;16.748;2023-05-13T12:49:53;29.60;65.90
11379;DHT22;5744;59.392;16.748;2023-05-13T12:52:22;29.80;68.00
11379;DHT22;5744;59.392;16.748;2023-05-13T12:54:51;29.90;69.20
11379;DHT22;5744;59.392;16.748;2023-05-13T12:57:19;29.00;71.30
11379;DHT22;5744;59.392;16.748;2023-05-13T12:59:48;28.40;71.10
11379;DHT22;5744;59.392;16.748;2023-05-13T13:02:17;28.50;69.90
11379;DHT22;5744;59.392;16.748;2023-05-13T13:04:45;28.90;68.60
11379;DHT22;5744;59.392;16.748;2023-05-13T13:07:16;29.40;66.60
11379;DHT22;5744;59.392;16.748;2023-05-13T13:09:45;29.50;68.00
11379;DHT22;5744;59.392;16.748;2023-05-13T13:12:14;29.20;68.00
11379;DHT22;5744;59.392;16.748;2023-05-13T13:14:42;29.40;65.60
11379;DHT22;5744;59.392;16.748;2023-05-13T13:17:11;29.90;66.20
11379;DHT22;5744;59.392;16.748;2023-05-13T13:19:39;30.00;63.10
11379;DHT22;5744;59.392;16.748;2023-05-13T13:22:08;30.30;69.80
11379;DHT22;5744;59.392;16.748;2023-05-13T13:24:39;30.40;67.50
11379;DHT22;5744;59.392;16.748;2023-05-13T13:27:09;28.70;73.40
11379;DHT22;5744;59.392;16.748;2023-05-13T13:29:38;28.50;73.90
11379;DHT22;5744;59.392;16.748;2023-05-13T13:32:06;28.80;67.10
11379;DHT22;5744;59.392;16.748;2023-05-13T13:34:35;29.00;69.20
11379;DHT22;5744;59.392;16.748;2023-05-13T13:37:04;29.20;70.50
11379;DHT22;5744;59.392;16.748;2023-05-13T13:39:32;29.20;68.00
11379;DHT22;5744;59.392;16.748;2023-05-13T13:42:04;29.30;67.90
11379;DHT22;5744;59.392;16.748;2023-05-13T13:44:33;29.20;67.80
11379;DHT22;5744;59.392;16.748;2023-05-13T13:47:03;29.30;72.20
11379;DHT22;5744;59.392;16.748;2023-05-13T13:49:32;28.70;68.30
11379;DHT22;5744;59.392;16.748;2023-05-13T13:52:00;28.20;71.00
11379;DHT22;5744;59.392;16.748;2023-05-13T13:54:29;28.50;70.50
11379;DHT22;5744;59.392;16.748;2023-05-13T13:56:58;28.60;68.10
11379;DHT22;5744;59.392;16.748;2023-05-13T13:59:29;28.90;66.50
11379;DHT22;5744;59.392;16.748;2023-05-13T14:01:58;28.80;67.30
11379;DHT22;5744;59.392;16.748;2023-05-13T14:04:27;28.80;66.90
11379;DHT22;5744;59.392;16.748;2023-05-13T14:06:57;28.70;69.20
11379;DHT22;5744;59.392;16.748;2023-05-13T14:09:26;28.80;69.10
11379;DHT22;5744;59.392;16.748;2023-05-13T14:11:55;29.00;66.90
11379;DHT22;5744;59.392;16.748;2023-05-13T14:14:24;28.90;66.70
11379;DHT22;5744;59.392;16.748;2023-05-13T14:16:55;28.80;68.20
11379;DHT22;5744;59.392;16.748;2023-05-13T14:19:24;28.60;66.00
11379;DHT22;5744;59.392;16.748;2023-05-13T14:21:52;28.50;66.40
11379;DHT22;5744;59.392;16.748;2023-05-13T14:24:21;28.70;71.30
11379;DHT22;5744;59.392;16.748;2023-05-13T14:26:49;28.70;68.70
11379;DHT22;5744;59.392;16.748;2023-05-13T14:29:18;28.80;69.00
11379;DHT22;5744;59.392;16.748;2023-05-13T14:31:47;28.80;66.50
11379;DHT22;5744;59.392;16.748;2023-05-13T14:34:18;28.70;68.60
11379;DHT22;5744;59.392;16.748;2023-05-13T14:36:47;28.70;68.50
11379;DHT22;5744;59.392;16.748;2023-05-13T14:39:16;28.70;65.60
11379;DHT22;5744;59.392;16.748;2023-05-13T14:41:44;28.70;68.40
11379;DHT22;5744;59.392;16.748;2023-05-13T14:44:13;28.70;68.80
11379;DHT22;5744;59.392;16.748;2023-05-13T14:46:41;28.80;71.80
11379;DHT22;5744;59.392;16.748;2023-05-13T14:49:10;28.90;68.90
11379;DHT22;5744;59.392;16.748;2023-05-13T14:51:41;28.30;65.60
11379;DHT22;5744;59.392;16.748;2023-05-13T14:54:10;28.10;67.20
11379;DHT22;5744;59.392;16.748;2023-05-13T14:56:39;28.00;65.20
11379;DHT22;5744;59.392;16.748;2023-05-13T14:59:08;28.00;65.80
11379;DHT22;5744;59.392;16.748;2023-05-13T15:01:36;27.90;67.60
11379;DHT22;5744;59.392;16.748;2023-05-13T15:04:05;26.90;69.70
11379;DHT22;5744;59.392;16.748;2023-05-13T15:06:34;26.50;69.70
11379;DHT22;5744;59.392;16.748;2023-05-13T15:09:05;26.40;72.10
11379;DHT22;5744;59.392;16.748;2023-05-13T15:11:33;26.50;68.70
11379;DHT22;5744;59.392;16.748;2023-05-13T15:14:03;26.30;73.70
11379;DHT22;5744;59.392;16.748;2023-05-13T15:16:32;26.30;71.20
11379;DHT22;5744;59.392;16.748;2023-05-13T15:19:00;26.50;72.00
11379;DHT22;5744;59.392;16.748;2023-05-13T15:21:29;26.30;72.80
11379;DHT22;5744;59.392;16.748;2023-05-13T15:23:58;25.70;74.70
11379;DHT22;5744;59.392;16.748;2023-05-13T15:26:29;25.60;70.50
11379;DHT22;5744;59.392;16.748;2023-05-13T15:28:58;25.70;73.70
11379;DHT22;5744;59.392;16.748;2023-05-13T15:31:26;25.50;73.40
11379;DHT22;5744;59.392;16.748;2023-05-13T15:33:55;24.90;76.40
11379;DHT22;5744;59.392;16.748;2023-05-13T15:36:24;24.60;78.20
11379;DHT22;5744;59.392;16.748;2023-05-13T15:38:52;24.20;73.80
11379;DHT22;5744;59.392;16.748;2023-05-13T15:41:21;23.70;74.30
11379;DHT22;5744;59.392;16.748;2023-05-13T15:43:52;23.40;74.70
11379;DHT22;5744;59.392;16.748;2023-05-13T15:46:21;23.00;75.00
11379;DHT22;5744;59.392;16.748;2023-05-13T15:48:50;22.90;76.80
11379;DHT22;5744;59.392;16.748;2023-05-13T15:51:19;22.90;75.00
11379;DHT22;5744;59.392;16.748;2023-05-13T15:53:47;23.10;77.80
11379;DHT22;5744;59.392;16.748;2023-05-13T15:56:17;22.90;77.00
11379;DHT22;5744;59.392;16.748;2023-05-13T15:58:46;22.80;76.30
11379;DHT22;5744;59.392;16.748;2023-05-13T16:01:17;22.90;77.10
11379;DHT22;5744;59.392;16.748;2023-05-13T16:03:46;22.80;77.30
11379;DHT22;5744;59.392;16.748;2023-05-13T16:06:14;22.80;79.40